sensor_id;sensor_type;location;lat;lon;timestamp;P1;durP1;ratioP1;P2;durP2;ratioP2
4452;SDS011;2239;48.152;11.584;2023-05-20T00:01:57;2.93;;;1.70;;
4452;SDS011;2239;48.152;11.584;2023-05-20T00:04:23;2.77;;;1.57;;
4452;SDS011;2239;48.152;11.584;2023-05-20T00:06:48;3.37;;;1.90;;
4452;SDS011;2239;48.152;11.584;2023-05-20T00:09:14;2.63;;;1.30;;
4452;SDS011;2239;48.152;11.584;2023-05-20T00:11:41;3.03;;;1.60;;
4452;SDS011;2239;48.152;11.584;2023-05-20T00:14:07;2.00;;;1.57;;
4452;SDS011;2239;48.152;11.584;2023-05-20T00:16:33;2.50;;;1.53;;
4452;SDS011;2239;48.152;11.584;2023-05-20T00:18:58;3.17;;;1.83;;
4452;SDS011;2239;48.152;11.584;2023-05-20T00:21:24;1.90;;;1.37;;
4452;SDS011;2239;48.152;11.584;2023-05-20T00:23:50;1.80;;;1.40;;
4452;SDS011;2239;48.152;11.584;2023-05-20T00:26:15;3.90;;;1.70;;
4452;SDS011;2239;48.152;11.584;2023-05-20T00:28:41;2.93;;;1.47;;
4452;SDS011;2239;48.152;11.584;2023-05-20T00:31:07;3.50;;;1.57;;
4452;SDS011;2239;48.152;11.584;2023-05-20T00:33:34;2.97;;;1.63;;
4452;SDS011;2239;48.152;11.584;2023-05-20T00:36:00;4.13;;;1.83;;
4452;SDS011;2239;48.152;11.584;2023-05-20T00:38:25;4.77;;;1.63;;
4452;SDS011;2239;48.152;11.584;2023-05-20T00:40:51;3.73;;;1.60;;
4452;SDS011;2239;48.152;11.584;2023-05-20T00:43:17;4.07;;;1.67;;
4452;SDS011;2239;48.152;11.584;2023-05-20T00:45:44;4.70;;;1.73;;
4452;SDS011;2239;48.152;11.584;2023-05-20T00:48:10;2.83;;;1.40;;
4452;SDS011;2239;48.152;11.584;2023-05-20T00:50:36;2.50;;;1.53;;
4452;SDS011;2239;48.152;11.584;2023-05-20T00:53:02;1.70;;;1.43;;
4452;SDS011;2239;48.152;11.584;2023-05-20T00:55:27;2.90;;;1.37;;
4452;SDS011;2239;48.152;11.584;2023-05-20T00:57:53;2.50;;;1.53;;
4452;SDS011;2239;48.152;11.584;2023-05-20T01:00:19;4.33;;;1.80;;
4452;SDS011;2239;48.152;11.584;2023-05-20T01:02:45;2.60;;;1.63;;
4452;SDS011;2239;48.152;11.584;2023-05-20T01:05:10;2.23;;;1.33;;
4452;SDS011;2239;48.152;11.584;2023-05-20T01:07:36;2.90;;;1.50;;
4452;SDS011;2239;48.152;11.584;2023-05-20T01:10:02;6.30;;;1.70;;
4452;SDS011;2239;48.152;11.584;2023-05-20T01:12:30;2.40;;;1.90;;
4452;SDS011;2239;48.152;11.584;2023-05-20T01:15:19;2.80;;;1.70;;
4452;SDS011;2239;48.152;11.584;2023-05-20T01:17:49;4.47;;;1.63;;
4452;SDS011;2239;48.152;11.584;2023-05-20T01:20:16;3.90;;;1.80;;
4452;SDS011;2239;48.152;11.584;2023-05-20T01:22:47;2.87;;;1.33;;
4452;SDS011;2239;48.152;11.584;2023-05-20T01:25:14;5.10;;;1.83;;
4452;SDS011;2239;48.152;11.584;2023-05-20T01:27:40;3.47;;;1.70;;
4452;SDS011;2239;48.152;11.584;2023-05-20T01:30:05;4.87;;;2.03;;
4452;SDS011;2239;48.152;11.584;2023-05-20T01:32:33;2.13;;;1.70;;
4452;SDS011;2239;48.152;11.584;2023-05-20T01:35:03;3.10;;;2.17;;
4452;SDS011;2239;48.152;11.584;2023-05-20T01:37:30;4.13;;;1.93;;
4452;SDS011;2239;48.152;11.584;2023-05-20T01:39:56;3.63;;;2.00;;
4452;SDS011;2239;48.152;11.584;2023-05-20T01:42:22;4.43;;;2.30;;
4452;SDS011;2239;48.152;11.584;2023-05-20T01:44:50;4.30;;;1.83;;
4452;SDS011;2239;48.152;11.584;2023-05-20T01:47:16;2.43;;;1.50;;
4452;SDS011;2239;48.152;11.584;2023-05-20T01:49:42;3.00;;;1.47;;
4452;SDS011;2239;48.152;11.584;2023-05-20T01:52:10;4.27;;;2.43;;
4452;SDS011;2239;48.152;11.584;2023-05-20T01:54:36;5.63;;;2.03;;
4452;SDS011;2239;48.152;11.584;2023-05-20T01:57:01;4.70;;;2.30;;
4452;SDS011;2239;48.152;11.584;2023-05-20T01:59:27;5.03;;;1.90;;
4452;SDS011;2239;48.152;11.584;2023-05-20T02:01:53;3.50;;;1.77;;
4452;SDS011;2239;48.152;11.584;2023-05-20T02:04:18;2.40;;;1.83;;
4452;SDS011;2239;48.152;11.584;2023-05-20T02:06:45;5.80;;;1.93;;
4452;SDS011;2239;48.152;11.584;2023-05-20T02:09:10;4.43;;;2.57;;
4452;SDS011;2239;48.152;11.584;2023-05-20T02:11:36;3.00;;;1.60;;
4452;SDS011;2239;48.152;11.584;2023-05-20T02:14:02;3.63;;;2.03;;
4452;SDS011;2239;48.152;11.584;2023-05-20T02:16:27;4.57;;;1.97;;
4452;SDS011;2239;48.152;11.584;2023-05-20T02:18:53;3.50;;;1.70;;
4452;SDS011;2239;48.152;11.584;2023-05-20T02:21:18;3.80;;;2.20;;
4452;SDS011;2239;48.152;11.584;2023-05-20T02:23:44;5.87;;;2.60;;
4452;SDS011;2239;48.152;11.584;2023-05-20T02:26:09;3.47;;;1.80;;
4452;SDS011;2239;48.152;11.584;2023-05-20T02:28:35;4.27;;;2.17;;
4452;SDS011;2239;48.152;11.584;2023-05-20T02:31:04;4.80;;;1.67;;
4452;SDS011;2239;48.152;11.584;2023-05-20T02:33:30;4.57;;;2.20;;
4452;SDS011;2239;48.152;11.584;2023-05-20T02:35:55;6.30;;;2.30;;
4452;SDS011;2239;48.152;11.584;2023-05-20T02:38:21;6.47;;;1.70;;
4452;SDS011;2239;48.152;11.584;2023-05-20T02:40:47;4.20;;;2.17;;
4452;SDS011;2239;48.152;11.584;2023-05-20T02:43:12;2.80;;;2.07;;
4452;SDS011;2239;48.152;11.584;2023-05-20T02:45:38;4.07;;;1.90;;
4452;SDS011;2239;48.152;11.584;2023-05-20T02:48:04;7.80;;;2.83;;
4452;SDS011;2239;48.152;11.584;2023-05-20T02:50:29;3.67;;;1.80;;
4452;SDS011;2239;48.152;11.584;2023-05-20T02:52:55;4.80;;;1.90;;
4452;SDS011;2239;48.152;11.584;2023-05-20T02:55:21;3.20;;;2.10;;
4452;SDS011;2239;48.152;11.584;2023-05-20T02:57:47;8.00;;;2.47;;
4452;SDS011;2239;48.152;11.584;2023-05-20T03:00:13;4.33;;;2.17;;
4452;SDS011;2239;48.152;11.584;2023-05-20T03:02:39;5.23;;;2.00;;
4452;SDS011;2239;48.152;11.584;2023-05-20T03:05:04;6.43;;;2.83;;
4452;SDS011;2239;48.152;11.584;2023-05-20T03:07:31;4.90;;;3.03;;
4452;SDS011;2239;48.152;11.584;2023-05-20T03:10:00;2.60;;;2.00;;
4452;SDS011;2239;48.152;11.584;2023-05-20T03:12:26;6.17;;;2.30;;
4452;SDS011;2239;48.152;11.584;2023-05-20T03:14:52;3.50;;;1.87;;
4452;SDS011;2239;48.152;11.584;2023-05-20T03:17:19;7.60;;;2.53;;
4452;SDS011;2239;48.152;11.584;2023-05-20T03:19:46;3.03;;;2.17;;
4452;SDS011;2239;48.152;11.584;2023-05-20T03:22:11;4.43;;;1.87;;
4452;SDS011;2239;48.152;11.584;2023-05-20T03:24:37;3.50;;;2.23;;
4452;SDS011;2239;48.152;11.584;2023-05-20T03:27:03;3.83;;;2.10;;
4452;SDS011;2239;48.152;11.584;2023-05-20T03:29:28;7.50;;;2.40;;
4452;SDS011;2239;48.152;11.584;2023-05-20T03:31:55;6.07;;;3.10;;
4452;SDS011;2239;48.152;11.584;2023-05-20T03:34:20;3.63;;;2.10;;
4452;SDS011;2239;48.152;11.584;2023-05-20T03:36:46;3.00;;;1.60;;
4452;SDS011;2239;48.152;11.584;2023-05-20T03:39:11;5.37;;;2.33;;
4452;SDS011;2239;48.152;11.584;2023-05-20T03:41:37;6.00;;;2.63;;
4452;SDS011;2239;48.152;11.584;2023-05-20T03:44:03;4.43;;;2.70;;
4452;SDS011;2239;48.152;11.584;2023-05-20T03:46:30;8.43;;;2.90;;
4452;SDS011;2239;48.152;11.584;2023-05-20T03:48:58;7.70;;;2.23;;
4452;SDS011;2239;48.152;11.584;2023-05-20T03:51:24;4.60;;;1.83;;
4452;SDS011;2239;48.152;11.584;2023-05-20T03:53:49;4.63;;;2.07;;
4452;SDS011;2239;48.152;11.584;2023-05-20T03:56:15;6.93;;;2.17;;
4452;SDS011;2239;48.152;11.584;2023-05-20T03:58:41;5.57;;;2.60;;
4452;SDS011;2239;48.152;11.584;2023-05-20T04:01:06;5.80;;;2.90;;
4452;SDS011;2239;48.152;11.584;2023-05-20T04:03:32;6.70;;;2.63;;
4452;SDS011;2239;48.152;11.584;2023-05-20T04:05:57;5.07;;;2.27;;
4452;SDS011;2239;48.152;11.584;2023-05-20T04:08:23;6.97;;;2.40;;
4452;SDS011;2239;48.152;11.584;2023-05-20T04:10:50;6.70;;;2.47;;
4452;SDS011;2239;48.152;11.584;2023-05-20T04:13:19;7.67;;;2.67;;
4452;SDS011;2239;48.152;11.584;2023-05-20T04:15:46;6.00;;;2.60;;
4452;SDS011;2239;48.152;11.584;2023-05-20T04:18:11;5.10;;;1.90;;
4452;SDS011;2239;48.152;11.584;2023-05-20T04:20:37;9.17;;;2.20;;
4452;SDS011;2239;48.152;11.584;2023-05-20T04:23:05;7.70;;;3.20;;
4452;SDS011;2239;48.152;11.584;2023-05-20T04:25:31;5.20;;;2.37;;
4452;SDS011;2239;48.152;11.584;2023-05-20T04:27:57;8.00;;;2.90;;
4452;SDS011;2239;48.152;11.584;2023-05-20T04:30:24;5.07;;;2.70;;
4452;SDS011;2239;48.152;11.584;2023-05-20T04:32:49;6.23;;;2.60;;
4452;SDS011;2239;48.152;11.584;2023-05-20T04:35:15;6.40;;;3.13;;
4452;SDS011;2239;48.152;11.584;2023-05-20T04:37:41;6.30;;;2.77;;
4452;SDS011;2239;48.152;11.584;2023-05-20T04:40:11;4.07;;;2.47;;
4452;SDS011;2239;48.152;11.584;2023-05-20T04:42:41;5.43;;;2.50;;
4452;SDS011;2239;48.152;11.584;2023-05-20T04:45:07;4.87;;;2.77;;
4452;SDS011;2239;48.152;11.584;2023-05-20T04:47:33;5.33;;;3.50;;
4452;SDS011;2239;48.152;11.584;2023-05-20T04:50:04;8.43;;;2.30;;
4452;SDS011;2239;48.152;11.584;2023-05-20T04:52:37;6.60;;;2.90;;
4452;SDS011;2239;48.152;11.584;2023-05-20T04:55:03;5.47;;;3.70;;
4452;SDS011;2239;48.152;11.584;2023-05-20T04:57:30;9.13;;;3.20;;
4452;SDS011;2239;48.152;11.584;2023-05-20T04:59:59;8.00;;;3.37;;
4452;SDS011;2239;48.152;11.584;2023-05-20T05:02:25;7.63;;;2.80;;
4452;SDS011;2239;48.152;11.584;2023-05-20T05:04:50;12.40;;;3.60;;
4452;SDS011;2239;48.152;11.584;2023-05-20T05:07:16;8.50;;;3.03;;
4452;SDS011;2239;48.152;11.584;2023-05-20T05:09:41;7.47;;;3.10;;
4452;SDS011;2239;48.152;11.584;2023-05-20T05:12:07;10.17;;;2.93;;
4452;SDS011;2239;48.152;11.584;2023-05-20T05:14:32;13.90;;;4.00;;
4452;SDS011;2239;48.152;11.584;2023-05-20T05:16:58;8.20;;;3.33;;
4452;SDS011;2239;48.152;11.584;2023-05-20T05:19:23;5.60;;;2.40;;
4452;SDS011;2239;48.152;11.584;2023-05-20T05:21:49;3.97;;;2.70;;
4452;SDS011;2239;48.152;11.584;2023-05-20T05:24:15;6.93;;;4.23;;
4452;SDS011;2239;48.152;11.584;2023-05-20T05:26:40;8.67;;;3.50;;
4452;SDS011;2239;48.152;11.584;2023-05-20T05:29:06;3.30;;;2.17;;
4452;SDS011;2239;48.152;11.584;2023-05-20T05:31:31;13.10;;;3.47;;
4452;SDS011;2239;48.152;11.584;2023-05-20T05:33:57;10.13;;;3.40;;
4452;SDS011;2239;48.152;11.584;2023-05-20T05:36:23;5.23;;;2.80;;
4452;SDS011;2239;48.152;11.584;2023-05-20T05:38:49;9.50;;;3.60;;
4452;SDS011;2239;48.152;11.584;2023-05-20T05:41:15;6.60;;;3.27;;
4452;SDS011;2239;48.152;11.584;2023-05-20T05:43:41;6.17;;;3.33;;
4452;SDS011;2239;48.152;11.584;2023-05-20T05:46:06;6.97;;;2.83;;
4452;SDS011;2239;48.152;11.584;2023-05-20T05:48:33;9.40;;;3.83;;
4452;SDS011;2239;48.152;11.584;2023-05-20T05:51:00;7.73;;;3.33;;
4452;SDS011;2239;48.152;11.584;2023-05-20T05:53:25;5.90;;;3.30;;
4452;SDS011;2239;48.152;11.584;2023-05-20T05:55:51;8.47;;;3.17;;
4452;SDS011;2239;48.152;11.584;2023-05-20T05:58:16;12.90;;;4.20;;
4452;SDS011;2239;48.152;11.584;2023-05-20T06:00:42;10.07;;;5.10;;
4452;SDS011;2239;48.152;11.584;2023-05-20T06:03:07;8.10;;;3.20;;
4452;SDS011;2239;48.152;11.584;2023-05-20T06:05:33;19.60;;;4.73;;
4452;SDS011;2239;48.152;11.584;2023-05-20T06:07:58;13.70;;;4.00;;
4452;SDS011;2239;48.152;11.584;2023-05-20T06:10:24;8.30;;;3.37;;
4452;SDS011;2239;48.152;11.584;2023-05-20T06:12:50;9.30;;;3.90;;
4452;SDS011;2239;48.152;11.584;2023-05-20T06:15:15;11.93;;;3.70;;
4452;SDS011;2239;48.152;11.584;2023-05-20T06:17:41;9.13;;;3.10;;
4452;SDS011;2239;48.152;11.584;2023-05-20T06:20:06;11.30;;;3.90;;
4452;SDS011;2239;48.152;11.584;2023-05-20T06:22:32;11.67;;;4.80;;
4452;SDS011;2239;48.152;11.584;2023-05-20T06:24:58;6.37;;;3.10;;
4452;SDS011;2239;48.152;11.584;2023-05-20T06:27:26;9.40;;;4.10;;
4452;SDS011;2239;48.152;11.584;2023-05-20T06:29:51;8.50;;;2.83;;
4452;SDS011;2239;48.152;11.584;2023-05-20T06:32:18;9.80;;;4.83;;
4452;SDS011;2239;48.152;11.584;2023-05-20T06:34:44;7.57;;;2.87;;
4452;SDS011;2239;48.152;11.584;2023-05-20T06:37:09;5.13;;;3.20;;
4452;SDS011;2239;48.152;11.584;2023-05-20T06:39:35;12.83;;;4.40;;
4452;SDS011;2239;48.152;11.584;2023-05-20T06:42:01;10.27;;;3.67;;
4452;SDS011;2239;48.152;11.584;2023-05-20T06:44:27;8.07;;;3.90;;
4452;SDS011;2239;48.152;11.584;2023-05-20T06:46:52;6.40;;;3.33;;
4452;SDS011;2239;48.152;11.584;2023-05-20T06:49:18;13.80;;;4.00;;
4452;SDS011;2239;48.152;11.584;2023-05-20T06:51:43;7.40;;;3.13;;
4452;SDS011;2239;48.152;11.584;2023-05-20T06:54:09;9.47;;;3.10;;
4452;SDS011;2239;48.152;11.584;2023-05-20T06:56:34;7.80;;;3.60;;
4452;SDS011;2239;48.152;11.584;2023-05-20T06:59:00;11.87;;;4.30;;
4452;SDS011;2239;48.152;11.584;2023-05-20T07:01:26;4.60;;;2.83;;
4452;SDS011;2239;48.152;11.584;2023-05-20T07:03:51;10.30;;;4.00;;
4452;SDS011;2239;48.152;11.584;2023-05-20T07:06:17;9.33;;;3.43;;
4452;SDS011;2239;48.152;11.584;2023-05-20T07:08:42;9.50;;;3.40;;
4452;SDS011;2239;48.152;11.584;2023-05-20T07:11:09;10.23;;;4.13;;
4452;SDS011;2239;48.152;11.584;2023-05-20T07:13:35;9.60;;;3.57;;
4452;SDS011;2239;48.152;11.584;2023-05-20T07:16:01;6.37;;;3.00;;
4452;SDS011;2239;48.152;11.584;2023-05-20T07:18:26;9.20;;;4.00;;
4452;SDS011;2239;48.152;11.584;2023-05-20T07:20:52;8.53;;;2.83;;
4452;SDS011;2239;48.152;11.584;2023-05-20T07:23:18;10.03;;;3.30;;
4452;SDS011;2239;48.152;11.584;2023-05-20T07:25:43;7.33;;;3.20;;
4452;SDS011;2239;48.152;11.584;2023-05-20T07:28:10;9.80;;;3.20;;
4452;SDS011;2239;48.152;11.584;2023-05-20T07:30:35;7.77;;;3.53;;
4452;SDS011;2239;48.152;11.584;2023-05-20T07:33:01;7.57;;;3.73;;
4452;SDS011;2239;48.152;11.584;2023-05-20T07:35:27;8.13;;;3.40;;
4452;SDS011;2239;48.152;11.584;2023-05-20T07:37:53;7.37;;;3.53;;
4452;SDS011;2239;48.152;11.584;2023-05-20T07:40:18;11.83;;;3.67;;
4452;SDS011;2239;48.152;11.584;2023-05-20T07:42:47;6.17;;;2.60;;
4452;SDS011;2239;48.152;11.584;2023-05-20T07:45:12;9.23;;;3.50;;
4452;SDS011;2239;48.152;11.584;2023-05-20T07:47:38;5.37;;;2.90;;
4452;SDS011;2239;48.152;11.584;2023-05-20T07:50:04;7.00;;;3.00;;
4452;SDS011;2239;48.152;11.584;2023-05-20T07:52:30;6.53;;;3.50;;
4452;SDS011;2239;48.152;11.584;2023-05-20T07:54:55;10.70;;;4.10;;
4452;SDS011;2239;48.152;11.584;2023-05-20T07:57:21;9.87;;;3.57;;
4452;SDS011;2239;48.152;11.584;2023-05-20T07:59:46;9.70;;;3.90;;
4452;SDS011;2239;48.152;11.584;2023-05-20T08:02:12;7.30;;;3.57;;
4452;SDS011;2239;48.152;11.584;2023-05-20T08:04:37;7.80;;;3.50;;
4452;SDS011;2239;48.152;11.584;2023-05-20T08:07:03;6.97;;;3.43;;
4452;SDS011;2239;48.152;11.584;2023-05-20T08:09:30;8.70;;;3.10;;
4452;SDS011;2239;48.152;11.584;2023-05-20T08:11:56;4.70;;;2.50;;
4452;SDS011;2239;48.152;11.584;2023-05-20T08:14:21;8.37;;;3.27;;
4452;SDS011;2239;48.152;11.584;2023-05-20T08:16:47;6.23;;;3.30;;
4452;SDS011;2239;48.152;11.584;2023-05-20T08:19:13;6.33;;;3.40;;
4452;SDS011;2239;48.152;11.584;2023-05-20T08:21:38;8.90;;;3.43;;
4452;SDS011;2239;48.152;11.584;2023-05-20T08:24:04;4.73;;;3.00;;
4452;SDS011;2239;48.152;11.584;2023-05-20T08:26:30;6.50;;;3.30;;
4452;SDS011;2239;48.152;11.584;2023-05-20T08:28:55;6.87;;;3.27;;
4452;SDS011;2239;48.152;11.584;2023-05-20T08:31:21;5.67;;;3.20;;
4452;SDS011;2239;48.152;11.584;2023-05-20T08:33:46;8.03;;;3.10;;
4452;SDS011;2239;48.152;11.584;2023-05-20T08:36:12;8.03;;;3.00;;
4452;SDS011;2239;48.152;11.584;2023-05-20T08:38:37;9.70;;;3.53;;
4452;SDS011;2239;48.152;11.584;2023-05-20T08:41:03;7.00;;;2.70;;
4452;SDS011;2239;48.152;11.584;2023-05-20T08:43:29;6.93;;;3.50;;
4452;SDS011;2239;48.152;11.584;2023-05-20T08:45:56;7.67;;;3.37;;
4452;SDS011;2239;48.152;11.584;2023-05-20T08:48:24;9.90;;;3.90;;
4452;SDS011;2239;48.152;11.584;2023-05-20T08:50:51;5.80;;;3.40;;
4452;SDS011;2239;48.152;11.584;2023-05-20T08:53:19;6.10;;;3.10;;
4452;SDS011;2239;48.152;11.584;2023-05-20T08:55:53;4.50;;;2.80;;
4452;SDS011;2239;48.152;11.584;2023-05-20T08:58:21;5.67;;;2.67;;
4452;SDS011;2239;48.152;11.584;2023-05-20T09:00:47;8.10;;;3.90;;
4452;SDS011;2239;48.152;11.584;2023-05-20T09:03:13;5.27;;;2.73;;
4452;SDS011;2239;48.152;11.584;2023-05-20T09:05:39;6.80;;;2.50;;
4452;SDS011;2239;48.152;11.584;2023-05-20T09:08:08;4.57;;;2.60;;
4452;SDS011;2239;48.152;11.584;2023-05-20T09:10:34;5.73;;;2.50;;
4452;SDS011;2239;48.152;11.584;2023-05-20T09:13:02;4.70;;;2.17;;
4452;SDS011;2239;48.152;11.584;2023-05-20T09:15:32;5.37;;;2.83;;
4452;SDS011;2239;48.152;11.584;2023-05-20T09:17:58;5.27;;;2.57;;
4452;SDS011;2239;48.152;11.584;2023-05-20T09:20:25;3.80;;;2.20;;
4452;SDS011;2239;48.152;11.584;2023-05-20T09:22:53;4.47;;;2.27;;
4452;SDS011;2239;48.152;11.584;2023-05-20T09:25:23;5.57;;;2.40;;
4452;SDS011;2239;48.152;11.584;2023-05-20T09:27:49;3.20;;;2.03;;
4452;SDS011;2239;48.152;11.584;2023-05-20T09:30:18;4.57;;;2.40;;
4452;SDS011;2239;48.152;11.584;2023-05-20T09:32:44;4.17;;;2.07;;
4452;SDS011;2239;48.152;11.584;2023-05-20T09:35:16;4.10;;;2.03;;
4452;SDS011;2239;48.152;11.584;2023-05-20T09:37:43;3.97;;;2.10;;
4452;SDS011;2239;48.152;11.584;2023-05-20T09:40:14;3.40;;;2.07;;
4452;SDS011;2239;48.152;11.584;2023-05-20T09:43:03;3.73;;;2.20;;
4452;SDS011;2239;48.152;11.584;2023-05-20T09:45:32;5.20;;;1.80;;
4452;SDS011;2239;48.152;11.584;2023-05-20T09:47:59;3.77;;;1.90;;
4452;SDS011;2239;48.152;11.584;2023-05-20T09:50:26;4.13;;;2.00;;
4452;SDS011;2239;48.152;11.584;2023-05-20T09:52:53;3.90;;;2.00;;
4452;SDS011;2239;48.152;11.584;2023-05-20T09:55:23;3.63;;;2.17;;
4452;SDS011;2239;48.152;11.584;2023-05-20T09:57:49;2.90;;;1.70;;
4452;SDS011;2239;48.152;11.584;2023-05-20T10:00:15;3.67;;;1.80;;
4452;SDS011;2239;48.152;11.584;2023-05-20T10:02:46;4.87;;;1.80;;
4452;SDS011;2239;48.152;11.584;2023-05-20T10:05:16;2.70;;;1.53;;
4452;SDS011;2239;48.152;11.584;2023-05-20T10:16:41;1.80;;;1.60;;
4452;SDS011;2239;48.152;11.584;2023-05-20T10:22:14;3.57;;;1.87;;
4452;SDS011;2239;48.152;11.584;2023-05-20T10:24:56;4.53;;;2.40;;
4452;SDS011;2239;48.152;11.584;2023-05-20T10:27:23;2.20;;;1.80;;
4452;SDS011;2239;48.152;11.584;2023-05-20T10:32:29;4.83;;;2.10;;
4452;SDS011;2239;48.152;11.584;2023-05-20T10:35:02;4.50;;;2.20;;
4452;SDS011;2239;48.152;11.584;2023-05-20T10:37:31;3.23;;;1.60;;
4452;SDS011;2239;48.152;11.584;2023-05-20T10:42:35;3.10;;;2.13;;
4452;SDS011;2239;48.152;11.584;2023-05-20T10:45:01;3.47;;;1.60;;
4452;SDS011;2239;48.152;11.584;2023-05-20T10:47:27;3.50;;;1.80;;
4452;SDS011;2239;48.152;11.584;2023-05-20T10:49:53;3.73;;;2.30;;
4452;SDS011;2239;48.152;11.584;2023-05-20T10:52:19;3.20;;;1.77;;
4452;SDS011;2239;48.152;11.584;2023-05-20T10:54:55;3.90;;;2.30;;
4452;SDS011;2239;48.152;11.584;2023-05-20T10:57:22;3.67;;;1.90;;
4452;SDS011;2239;48.152;11.584;2023-05-20T10:59:48;3.53;;;1.77;;
4452;SDS011;2239;48.152;11.584;2023-05-20T11:02:15;2.37;;;1.83;;
4452;SDS011;2239;48.152;11.584;2023-05-20T11:04:42;2.57;;;1.73;;
4452;SDS011;2239;48.152;11.584;2023-05-20T11:07:08;3.87;;;2.20;;
4452;SDS011;2239;48.152;11.584;2023-05-20T11:09:33;4.27;;;2.33;;
4452;SDS011;2239;48.152;11.584;2023-05-20T11:11:59;1.57;;;1.40;;
4452;SDS011;2239;48.152;11.584;2023-05-20T11:14:27;2.27;;;1.50;;
4452;SDS011;2239;48.152;11.584;2023-05-20T11:16:55;4.10;;;1.87;;
4452;SDS011;2239;48.152;11.584;2023-05-20T11:19:21;2.67;;;1.70;;
4452;SDS011;2239;48.152;11.584;2023-05-20T11:21:47;4.43;;;1.60;;
4452;SDS011;2239;48.152;11.584;2023-05-20T11:24:13;3.27;;;1.83;;
4452;SDS011;2239;48.152;11.584;2023-05-20T11:26:45;1.83;;;1.40;;
4452;SDS011;2239;48.152;11.584;2023-05-20T11:29:11;2.27;;;1.50;;
4452;SDS011;2239;48.152;11.584;2023-05-20T11:31:37;1.90;;;1.63;;
4452;SDS011;2239;48.152;11.584;2023-05-20T11:34:03;3.97;;;1.60;;
4452;SDS011;2239;48.152;11.584;2023-05-20T11:36:28;3.07;;;1.70;;
4452;SDS011;2239;48.152;11.584;2023-05-20T11:38:58;3.37;;;1.67;;
4452;SDS011;2239;48.152;11.584;2023-05-20T11:41:27;3.20;;;1.67;;
4452;SDS011;2239;48.152;11.584;2023-05-20T11:43:56;2.07;;;1.50;;
4452;SDS011;2239;48.152;11.584;2023-05-20T11:46:23;4.00;;;2.17;;
4452;SDS011;2239;48.152;11.584;2023-05-20T11:48:55;2.70;;;1.80;;
4452;SDS011;2239;48.152;11.584;2023-05-20T11:51:30;2.97;;;1.60;;
4452;SDS011;2239;48.152;11.584;2023-05-20T11:54:02;4.57;;;1.80;;
4452;SDS011;2239;48.152;11.584;2023-05-20T11:56:36;3.30;;;1.83;;
4452;SDS011;2239;48.152;11.584;2023-05-20T11:59:03;2.70;;;1.63;;
4452;SDS011;2239;48.152;11.584;2023-05-20T12:01:33;1.97;;;1.43;;
4452;SDS011;2239;48.152;11.584;2023-05-20T12:04:06;2.70;;;1.70;;
4452;SDS011;2239;48.152;11.584;2023-05-20T12:06:32;2.73;;;1.90;;
4452;SDS011;2239;48.152;11.584;2023-05-20T12:09:01;4.87;;;2.10;;
4452;SDS011;2239;48.152;11.584;2023-05-20T12:11:32;1.93;;;1.40;;
4452;SDS011;2239;48.152;11.584;2023-05-20T12:14:04;2.80;;;1.60;;
4452;SDS011;2239;48.152;11.584;2023-05-20T12:16:30;2.40;;;1.67;;
4452;SDS011;2239;48.152;11.584;2023-05-20T12:18:57;3.10;;;1.80;;
4452;SDS011;2239;48.152;11.584;2023-05-20T12:21:23;2.20;;;1.57;;
4452;SDS011;2239;48.152;11.584;2023-05-20T12:23:48;2.87;;;1.67;;
4452;SDS011;2239;48.152;11.584;2023-05-20T12:26:14;2.40;;;1.70;;
4452;SDS011;2239;48.152;11.584;2023-05-20T12:28:40;3.53;;;1.80;;
4452;SDS011;2239;48.152;11.584;2023-05-20T12:31:05;4.50;;;1.80;;
4452;SDS011;2239;48.152;11.584;2023-05-20T12:33:31;3.50;;;2.10;;
4452;SDS011;2239;48.152;11.584;2023-05-20T12:35:57;3.23;;;1.80;;
4452;SDS011;2239;48.152;11.584;2023-05-20T12:38:22;3.13;;;1.70;;
4452;SDS011;2239;48.152;11.584;2023-05-20T12:40:48;3.57;;;1.80;;
4452;SDS011;2239;48.152;11.584;2023-05-20T12:43:14;4.97;;;2.33;;
4452;SDS011;2239;48.152;11.584;2023-05-20T12:45:39;3.07;;;2.00;;
4452;SDS011;2239;48.152;11.584;2023-05-20T12:48:05;3.30;;;2.30;;
4452;SDS011;2239;48.152;11.584;2023-05-20T12:50:33;3.50;;;1.80;;
4452;SDS011;2239;48.152;11.584;2023-05-20T12:52:58;4.87;;;2.40;;
4452;SDS011;2239;48.152;11.584;2023-05-20T12:55:24;2.70;;;1.90;;
4452;SDS011;2239;48.152;11.584;2023-05-20T12:57:50;3.37;;;2.00;;
4452;SDS011;2239;48.152;11.584;2023-05-20T13:00:15;5.10;;;2.40;;
4452;SDS011;2239;48.152;11.584;2023-05-20T13:02:41;3.40;;;2.10;;
4452;SDS011;2239;48.152;11.584;2023-05-20T13:05:07;4.53;;;2.23;;
4452;SDS011;2239;48.152;11.584;2023-05-20T13:07:34;3.97;;;2.30;;
4452;SDS011;2239;48.152;11.584;2023-05-20T13:09:59;5.70;;;3.07;;
4452;SDS011;2239;48.152;11.584;2023-05-20T13:12:25;3.80;;;2.30;;
4452;SDS011;2239;48.152;11.584;2023-05-20T13:14:51;5.03;;;2.50;;
4452;SDS011;2239;48.152;11.584;2023-05-20T13:17:17;6.00;;;2.97;;
4452;SDS011;2239;48.152;11.584;2023-05-20T13:19:43;6.13;;;2.77;;
4452;SDS011;2239;48.152;11.584;2023-05-20T13:22:12;3.27;;;2.10;;
4452;SDS011;2239;48.152;11.584;2023-05-20T13:24:37;3.20;;;1.90;;
4452;SDS011;2239;48.152;11.584;2023-05-20T13:27:03;8.13;;;2.70;;
4452;SDS011;2239;48.152;11.584;2023-05-20T13:29:29;5.53;;;2.80;;
4452;SDS011;2239;48.152;11.584;2023-05-20T13:31:55;5.93;;;2.87;;
4452;SDS011;2239;48.152;11.584;2023-05-20T13:34:21;5.80;;;2.53;;
4452;SDS011;2239;48.152;11.584;2023-05-20T13:36:47;5.87;;;2.60;;
4452;SDS011;2239;48.152;11.584;2023-05-20T13:39:13;4.07;;;2.50;;
4452;SDS011;2239;48.152;11.584;2023-05-20T13:41:39;4.20;;;2.60;;
4452;SDS011;2239;48.152;11.584;2023-05-20T13:44:05;4.67;;;2.60;;
4452;SDS011;2239;48.152;11.584;2023-05-20T13:46:31;4.47;;;2.83;;
4452;SDS011;2239;48.152;11.584;2023-05-20T13:48:56;4.77;;;2.53;;
4452;SDS011;2239;48.152;11.584;2023-05-20T13:51:22;6.37;;;3.13;;
4452;SDS011;2239;48.152;11.584;2023-05-20T13:53:47;6.00;;;3.20;;
4452;SDS011;2239;48.152;11.584;2023-05-20T13:56:13;6.50;;;2.80;;
4452;SDS011;2239;48.152;11.584;2023-05-20T13:58:38;6.23;;;2.67;;
4452;SDS011;2239;48.152;11.584;2023-05-20T14:01:04;6.97;;;3.10;;
4452;SDS011;2239;48.152;11.584;2023-05-20T14:03:30;5.13;;;2.33;;
4452;SDS011;2239;48.152;11.584;2023-05-20T14:06:01;3.93;;;2.30;;
4452;SDS011;2239;48.152;11.584;2023-05-20T14:08:26;6.60;;;3.10;;
4452;SDS011;2239;48.152;11.584;2023-05-20T14:10:52;8.93;;;2.93;;
4452;SDS011;2239;48.152;11.584;2023-05-20T14:13:20;3.83;;;2.30;;
4452;SDS011;2239;48.152;11.584;2023-05-20T14:15:46;4.77;;;2.23;;
4452;SDS011;2239;48.152;11.584;2023-05-20T14:18:13;5.87;;;3.00;;
4452;SDS011;2239;48.152;11.584;2023-05-20T14:20:38;3.57;;;2.70;;
4452;SDS011;2239;48.152;11.584;2023-05-20T14:23:04;4.73;;;2.57;;
4452;SDS011;2239;48.152;11.584;2023-05-20T14:25:29;6.90;;;2.77;;
4452;SDS011;2239;48.152;11.584;2023-05-20T14:27:55;4.60;;;2.57;;
4452;SDS011;2239;48.152;11.584;2023-05-20T14:30:20;6.23;;;2.67;;
4452;SDS011;2239;48.152;11.584;2023-05-20T14:32:46;5.13;;;2.90;;
4452;SDS011;2239;48.152;11.584;2023-05-20T14:35:11;3.97;;;2.73;;
4452;SDS011;2239;48.152;11.584;2023-05-20T14:37:37;6.07;;;3.20;;
4452;SDS011;2239;48.152;11.584;2023-05-20T14:40:03;4.77;;;3.10;;
4452;SDS011;2239;48.152;11.584;2023-05-20T14:42:31;6.77;;;3.20;;
4452;SDS011;2239;48.152;11.584;2023-05-20T14:44:57;6.30;;;3.40;;
4452;SDS011;2239;48.152;11.584;2023-05-20T14:47:22;6.23;;;2.90;;
4452;SDS011;2239;48.152;11.584;2023-05-20T14:49:48;5.63;;;2.87;;
4452;SDS011;2239;48.152;11.584;2023-05-20T14:52:14;6.13;;;3.03;;
4452;SDS011;2239;48.152;11.584;2023-05-20T14:54:40;6.50;;;3.40;;
4452;SDS011;2239;48.152;11.584;2023-05-20T14:57:06;8.37;;;3.67;;
4452;SDS011;2239;48.152;11.584;2023-05-20T14:59:32;8.20;;;3.47;;
4452;SDS011;2239;48.152;11.584;2023-05-20T15:01:58;5.47;;;2.90;;
4452;SDS011;2239;48.152;11.584;2023-05-20T15:04:23;5.60;;;3.37;;
4452;SDS011;2239;48.152;11.584;2023-05-20T15:06:49;6.23;;;3.40;;
4452;SDS011;2239;48.152;11.584;2023-05-20T15:09:16;5.07;;;2.87;;
4452;SDS011;2239;48.152;11.584;2023-05-20T15:11:41;5.80;;;2.93;;
4452;SDS011;2239;48.152;11.584;2023-05-20T15:14:07;7.40;;;3.30;;